EDT,Max TemperatureF,Mean TemperatureF,Min TemperatureF,Max Dew PointF,MeanDew PointF,Min DewpointF,Max Humidity, Mean Humidity, Min Humidity, Max Sea Level PressureIn, Mean Sea Level PressureIn, Min Sea Level PressureIn, Max VisibilityMiles, Mean VisibilityMiles, Min VisibilityMiles, Max Wind SpeedMPH, Mean Wind SpeedMPH, Max Gust SpeedMPH,PrecipitationIn, CloudCover, Events, WindDirDegrees
2014-3-1,59,48,37,34,26,17,61,45,33,30.35,30.27,30.20,10,10,10,10,7,16,0.00,4,Rain,340
2014-3-2,72,59,46,45,40,34,71,50,34,30.22,30.10,29.92,10,10,10,16,5,26,0.00,1,,217
2014-3-3,60,46,33,55,41,27,93,80,53,30.19,29.94,29.78,10,9,2,25,11,38,0.06,7,Rain,178
2014-3-4,39,32,26,26,16,6,79,52,31,30.31,30.22,30.18,10,10,10,18,11,23,0.00,6,,56
2014-3-5,55,44,34,31,23,16,65,46,32,30.24,30.17,30.08,10,10,10,8,5,,0.00,1,,73
2014-3-6,41,38,34,32,24,14,89,63,35,30.30,30.17,30.01,10,9,5,24,14,34,0.38,5,Rain,44
2014-3-7,52,44,36,41,36,33,89,82,61,30.04,29.98,29.93,10,8,5,23,16,32,1.14,6,Rain,26
2014-3-8,69,53,37,43,37,33,89,58,26,30.11,30.05,29.99,10,10,10,16,6,24,0.00,0,,251
2014-3-9,72,58,45,40,35,25,65,42,28,30.11,30.05,29.99,10,10,10,12,4,,0.00,0,,277
2014-3-10,75,57,41,39,33,27,60,39,24,30.05,29.95,29.84,10,10,10,14,5,21,0.00,0,,252
2014-3-11,78,63,48,45,38,29,68,41,20,29.85,29.77,29.69,10,10,10,15,8,20,0.00,0,,235
2014-3-12,75,59,44,58,49,22,93,68,34,29.78,29.56,29.35,10,8,2,30,12,44,0.10,5,Rain,236
2014-3-13,54,43,33,23,10,-3,52,29,10,30.22,30.04,29.80,10,10,10,15,7,23,0.00,0,,359
2014-3-14,63,48,32,22,15,8,59,30,15,30.32,30.22,30.10,10,10,10,15,4,23,0.00,0,,214
2014-3-15,72,59,48,37,31,24,48,34,25,30.09,30.05,29.99,10,10,10,14,7,22,0.00,0,,233
2014-3-16,57,50,42,47,44,38,93,87,49,30.01,29.85,29.72,10,4,1,22,9,30,0.96,8,Rain,41
2014-3-17,41,38,33,39,33,30,93,89,85,29.95,29.84,29.76,10,8,2,18,14,33,0.19,8,Rain,54
2014-3-18,52,42,33,40,34,29,92,82,63,30.15,30.02,29.88,10,10,5,15,11,24,0.00,8,,55
2014-3-19,57,48,41,43,41,39,96,85,57,30.18,30.12,30.01,10,6,2,17,6,25,0.00,7,,179
2014-3-20,72,58,44,44,30,7,90,49,8,30.07,30.02,29.95,10,10,8,15,4,23,0.00,0,,298
2014-3-21,68,52,37,29,22,19,62,31,16,30.19,30.10,30.05,10,10,10,10,4,17,0.00,0,,213
2014-3-22,75,62,48,42,35,25,50,37,25,30.06,30.01,29.94,10,10,10,13,6,18,0.00,1,Rain,231
2014-3-23,61,54,46,48,42,25,93,68,42,30.14,30.00,29.91,10,10,6,16,5,23,0.05,4,Rain,40
2014-3-24,55,46,36,25,22,19,57,40,25,30.26,30.14,30.04,10,10,10,16,10,24,0.00,1,,97
2014-3-25,51,42,35,39,28,11,89,63,27,30.10,29.94,29.85,10,9,5,21,6,33,0.16,7,Rain,337
2014-3-26,53,40,28,14,8,4,51,29,15,30.30,30.23,30.12,10,10,10,9,4,,0.00,0,,251
2014-3-27,63,48,34,35,19,11,50,33,18,30.42,30.32,30.24,10,10,6,14,4,23,0.00,0,,184
2014-3-28,60,54,50,54,50,38,96,84,61,30.23,30.14,30.09,10,7,0,9,5,,0.04,7,Fog-Rain,75
2014-3-29,66,60,51,59,54,34,97,87,45,30.10,29.87,29.66,10,6,0,15,8,24,0.18,7,Fog-Rain,134
2014-3-30,64,54,46,32,26,21,52,36,22,30.07,29.95,29.80,10,10,10,20,11,28,0.00,1,,349
2014-3-31,77,62,46,27,18,11,35,20,10,30.15,30.09,30.06,10,10,10,9,5,,0.00,0,,271